createdAt,value
2022-12-23T00:01:02.496Z,15.63
2022-12-23T00:06:15.025Z,16.42
2022-12-23T00:11:19.044Z,17.95
2022-12-23T00:16:20.733Z,17.27
2022-12-23T00:21:23.172Z,18.83
2022-12-23T00:26:27.091Z,12.63
2022-12-23T00:31:28.791Z,12.73
2022-12-23T00:36:30.770Z,19.50
2022-12-23T00:41:32.561Z,17.30
2022-12-23T00:46:34.097Z,10.95
2022-12-23T00:51:35.840Z,15.00
2022-12-23T00:56:37.623Z,12.95
2022-12-23T01:01:39.314Z,13.30
2022-12-23T01:06:40.998Z,10.75
2022-12-23T01:11:42.709Z,12.90
2022-12-23T01:16:44.396Z,14.98
2022-12-23T01:21:46.001Z,11.45
2022-12-23T01:26:47.556Z,14.20
2022-12-23T01:31:49.173Z,10.48
2022-12-23T01:36:50.775Z,6.53
2022-12-23T01:41:52.460Z,4.53
2022-12-23T01:46:54.023Z,16.77
2022-12-23T01:51:55.652Z,8.93
2022-12-23T01:56:58.327Z,10.15
2022-12-23T02:02:00.697Z,13.80
2022-12-23T02:07:03.195Z,10.13
2022-12-23T02:12:28.725Z,6.40
2022-12-23T02:17:57.895Z,9.32
2022-12-23T02:23:37.166Z,4.75
2022-12-23T02:29:06.663Z,5.97
2022-12-23T02:34:16.502Z,4.90
2022-12-23T02:39:31.483Z,2.85
2022-12-23T02:44:50.480Z,5.20
2022-12-23T02:49:57.072Z,9.65
2022-12-23T02:55:08.397Z,9.10
2022-12-23T03:00:11.232Z,9.70
2022-12-23T03:05:34.434Z,9.95
2022-12-23T03:10:54.775Z,13.07
2022-12-23T03:16:08.174Z,8.68
2022-12-23T03:21:17.491Z,12.38
2022-12-23T03:26:23.585Z,10.52
2022-12-23T03:31:29.485Z,11.50
2022-12-23T03:36:47.411Z,10.47
2022-12-23T03:42:13.275Z,7.85
2022-12-23T03:47:33.968Z,6.38
2022-12-23T03:52:40.513Z,8.38
2022-12-23T03:57:47.337Z,7.22
2022-12-23T04:03:10.578Z,4.82
2022-12-23T04:08:34.738Z,4.97
2022-12-23T04:13:36.502Z,6.35
2022-12-23T04:18:38.059Z,8.07
2022-12-23T04:23:39.691Z,6.00
2022-12-23T04:28:41.232Z,3.63
2022-12-23T04:33:42.860Z,4.15
2022-12-23T04:38:44.443Z,4.25
2022-12-23T04:43:52.549Z,3.80
2022-12-23T04:48:54.757Z,6.78
2022-12-23T04:53:56.322Z,3.15
2022-12-23T04:58:57.959Z,4.53
2022-12-23T05:03:59.601Z,4.25
2022-12-23T05:09:01.128Z,3.33
2022-12-23T05:14:02.786Z,4.53
2022-12-23T05:19:04.662Z,3.90
2022-12-23T05:24:06.523Z,4.10
2022-12-23T05:29:08.094Z,6.45
2022-12-23T05:34:09.666Z,4.78
2022-12-23T05:39:11.289Z,5.68
2022-12-23T05:44:13.029Z,4.90
2022-12-23T05:49:14.667Z,4.97
2022-12-23T05:54:16.230Z,5.35
2022-12-23T05:59:17.868Z,4.32
2022-12-23T06:04:19.453Z,4.68
2022-12-23T06:09:21.083Z,3.70
2022-12-23T06:14:28.319Z,4.25
2022-12-23T06:19:30.481Z,4.38
2022-12-23T06:24:32.111Z,3.50
2022-12-23T06:29:33.652Z,4.40
2022-12-23T06:34:35.169Z,5.03
2022-12-23T06:39:36.728Z,5.88
2022-12-23T06:44:38.298Z,5.75
2022-12-23T06:49:39.833Z,5.95
2022-12-23T06:54:41.351Z,4.97
2022-12-23T06:59:42.904Z,5.50
2022-12-23T07:04:44.421Z,2.42
2022-12-23T07:09:46.007Z,6.50
2022-12-23T07:14:47.544Z,4.35
2022-12-23T07:19:49.101Z,3.13
2022-12-23T07:24:50.844Z,7.05
2022-12-23T07:29:52.381Z,3.63
2022-12-23T07:34:54.089Z,6.13
2022-12-23T07:39:55.766Z,4.57
2022-12-23T07:44:57.357Z,4.00
2022-12-23T07:49:58.935Z,3.55
2022-12-23T07:55:00.772Z,7.97
2022-12-23T08:00:02.655Z,4.45
2022-12-23T08:05:14.296Z,6.03
2022-12-23T08:10:16.067Z,7.53
2022-12-23T08:15:17.680Z,7.25
2022-12-23T08:20:19.254Z,7.43
2022-12-23T08:25:20.920Z,7.35
2022-12-23T08:30:22.800Z,11.50
2022-12-23T08:35:24.426Z,5.07
2022-12-23T08:40:26.119Z,6.32
2022-12-23T08:45:27.799Z,5.68
2022-12-23T08:50:29.545Z,6.43
2022-12-23T08:55:31.165Z,7.05
2022-12-23T09:00:33.012Z,4.85
2022-12-23T09:05:39.940Z,3.83
2022-12-23T09:10:44.829Z,4.68
2022-12-23T09:15:46.617Z,6.63
2022-12-23T09:20:48.384Z,4.63
2022-12-23T09:25:50.140Z,4.60
2022-12-23T09:30:52.027Z,3.97
2022-12-23T09:35:54.098Z,4.50
2022-12-23T09:41:17.119Z,3.83
2022-12-23T09:46:23.958Z,6.15
2022-12-23T09:51:26.083Z,3.72
2022-12-23T09:56:45.085Z,5.05
2022-12-23T10:02:04.357Z,6.10
2022-12-23T10:07:06.140Z,7.50
2022-12-23T10:12:28.192Z,6.00
2022-12-23T10:17:40.925Z,5.57
2022-12-23T10:22:44.656Z,5.32
2022-12-23T10:28:02.075Z,5.07
2022-12-23T10:33:22.562Z,9.25
2022-12-23T10:38:36.430Z,10.35
2022-12-23T10:43:57.523Z,7.15
2022-12-23T10:49:30.261Z,8.18
2022-12-23T10:54:36.897Z,6.95
2022-12-23T11:04:42.343Z,6.85
2022-12-23T11:09:48.156Z,7.88
2022-12-23T11:14:56.457Z,8.55
2022-12-23T11:20:10.389Z,8.50
2022-12-23T11:25:29.212Z,8.02
2022-12-23T11:30:35.231Z,4.88
2022-12-23T11:35:37.197Z,3.58
2022-12-23T11:40:45.867Z,7.07
2022-12-23T11:45:50.620Z,7.43
2022-12-23T11:51:09.419Z,5.15
2022-12-23T11:56:26.059Z,5.82
2022-12-23T12:01:30.677Z,6.20
2022-12-23T12:06:33.650Z,7.65
2022-12-23T12:11:39.846Z,6.53
2022-12-23T12:16:47.421Z,4.63
2022-12-23T12:21:54.647Z,7.55
2022-12-23T12:27:02.441Z,8.38
2022-12-23T12:32:07.581Z,7.40
2022-12-23T12:37:41.279Z,7.60
2022-12-23T12:42:49.019Z,10.68
2022-12-23T12:48:25.193Z,9.63
2022-12-23T12:53:30.504Z,8.10
2022-12-23T12:58:32.121Z,5.93
2022-12-23T13:03:46.880Z,11.43
2022-12-23T13:09:13.009Z,8.68
2022-12-23T13:14:32.892Z,6.85
2022-12-23T13:20:20.168Z,7.13
2022-12-23T13:26:11.416Z,8.02
2022-12-23T13:31:59.162Z,10.18
2022-12-23T13:37:06.398Z,6.32
2022-12-23T13:42:15.454Z,12.05
2022-12-23T13:48:05.563Z,12.60
2022-12-23T13:53:33.300Z,7.13
2022-12-23T13:58:35.647Z,7.15
2022-12-23T14:03:39.481Z,10.57
2022-12-23T14:08:42.920Z,9.73
2022-12-23T14:13:50.549Z,5.80
2022-12-23T14:19:23.115Z,17.15
2022-12-23T14:24:50.168Z,4.32
2022-12-23T14:35:47.535Z,4.60
2022-12-23T14:45:53.609Z,5.00
2022-12-23T14:51:01.666Z,10.27
2022-12-23T14:56:15.461Z,5.07
2022-12-23T15:01:40.418Z,5.03
2022-12-23T15:06:46.728Z,5.63
2022-12-23T15:11:48.498Z,8.80
2022-12-23T15:16:50.453Z,6.40
2022-12-23T15:22:15.368Z,4.93
2022-12-23T15:27:27.760Z,5.47
2022-12-23T15:32:30.045Z,5.75
2022-12-23T15:37:32.775Z,4.80
2022-12-23T15:42:34.441Z,6.63
2022-12-23T15:47:38.855Z,5.85
2022-12-23T15:52:42.947Z,4.25
2022-12-23T15:57:50.457Z,4.10
2022-12-23T16:03:04.070Z,6.32
2022-12-23T16:08:16.498Z,5.93
2022-12-23T16:13:20.081Z,6.47
2022-12-23T16:18:27.115Z,5.22
2022-12-23T16:23:31.219Z,8.85
2022-12-23T16:28:44.975Z,7.30
2022-12-23T16:33:58.132Z,13.35
2022-12-23T16:39:05.165Z,13.85
2022-12-23T16:44:06.740Z,15.25
2022-12-23T16:49:17.248Z,10.70
2022-12-23T16:54:20.130Z,14.75
2022-12-23T16:59:21.642Z,8.63
2022-12-23T17:04:23.222Z,6.72
2022-12-23T17:09:24.757Z,9.52
2022-12-23T17:14:27.536Z,15.10
2022-12-23T17:19:29.721Z,11.60
2022-12-23T17:24:31.403Z,12.32
2022-12-23T17:29:33.020Z,7.47
2022-12-23T17:34:34.568Z,11.98
2022-12-23T17:39:36.153Z,7.38
2022-12-23T17:44:38.034Z,9.07
2022-12-23T17:49:39.559Z,10.45
2022-12-23T17:54:41.568Z,12.40
2022-12-23T17:59:47.717Z,8.63
2022-12-23T18:04:50.511Z,9.60
2022-12-23T18:09:52.891Z,9.73
2022-12-23T18:14:55.291Z,10.73
2022-12-23T18:19:57.039Z,8.70
2022-12-23T18:25:01.637Z,10.70
2022-12-23T18:30:03.768Z,14.55
2022-12-23T18:35:18.880Z,13.60
2022-12-23T18:40:21.058Z,15.98
2022-12-23T18:45:40.339Z,12.88
2022-12-23T18:50:43.615Z,11.57
2022-12-23T18:55:45.251Z,15.23
2022-12-23T19:00:48.295Z,11.27
2022-12-23T19:05:51.374Z,18.70
2022-12-23T19:10:53.733Z,14.75
2022-12-23T19:15:55.484Z,15.38
2022-12-23T19:20:57.127Z,20.17
2022-12-23T19:25:58.841Z,12.55
2022-12-23T19:31:00.595Z,12.68
2022-12-23T19:36:02.396Z,14.73
2022-12-23T19:41:04.196Z,12.85
2022-12-23T19:46:08.497Z,15.15
2022-12-23T19:51:14.039Z,11.27
2022-12-23T19:56:17.580Z,13.07
2022-12-23T20:01:24.676Z,14.57
2022-12-23T20:06:28.019Z,12.20
2022-12-23T20:11:39.292Z,16.05
2022-12-23T20:16:41.362Z,8.50
2022-12-23T20:21:43.908Z,15.98
2022-12-23T20:26:48.768Z,11.40
2022-12-23T20:31:50.679Z,15.55
2022-12-23T20:36:52.579Z,10.95
2022-12-23T20:41:54.264Z,12.07
2022-12-23T20:46:56.183Z,11.40
2022-12-23T20:52:00.484Z,9.23
2022-12-23T20:57:02.819Z,7.82
2022-12-23T21:02:04.547Z,10.68
2022-12-23T21:07:06.565Z,10.27
2022-12-23T21:12:08.307Z,12.20
2022-12-23T21:17:09.979Z,6.70
2022-12-23T21:22:11.729Z,11.57
2022-12-23T21:27:13.601Z,11.73
2022-12-23T21:32:15.215Z,8.98
2022-12-23T21:37:16.856Z,11.88
2022-12-23T21:42:18.561Z,9.38
2022-12-23T21:47:20.196Z,10.70
2022-12-23T21:52:21.857Z,17.83
2022-12-23T21:57:23.551Z,12.82
2022-12-23T22:02:25.210Z,13.48
2022-12-23T22:07:26.765Z,10.13
2022-12-23T22:12:28.330Z,10.18
2022-12-23T22:17:29.888Z,15.80
2022-12-23T22:22:31.428Z,12.25
2022-12-23T22:27:32.983Z,10.45
2022-12-23T22:32:39.036Z,7.47
2022-12-23T22:37:43.897Z,10.85
2022-12-23T22:42:45.492Z,12.52
2022-12-23T22:47:47.191Z,11.48
2022-12-23T22:52:48.840Z,16.13
2022-12-23T22:57:50.500Z,24.77
2022-12-23T23:02:51.993Z,14.07
2022-12-23T23:07:53.630Z,11.57
2022-12-23T23:12:55.185Z,18.42
2022-12-23T23:17:56.737Z,9.13
2022-12-23T23:22:58.407Z,12.60
2022-12-23T23:28:00.340Z,14.88
2022-12-23T23:33:01.943Z,15.65
2022-12-23T23:38:03.645Z,9.55
2022-12-23T23:43:05.276Z,16.83
2022-12-23T23:48:06.898Z,14.27
2022-12-23T23:53:12.697Z,17.77
2022-12-23T23:58:14.250Z,20.97
